Terminal Aerodrome Forecast
Issued by NWS

Home | Current Version | Previous Version | Text Only | Print | Product List | Glossary On
Versions: 1 2 3 4 5 6 7 8 9 10 11 12 13 14 15 16 17 18 19 20 21 22 23 24
323
FTUS43 KLOT 181725
TAFMDW
TAF
KMDW 181725Z 1818/1918 20016G25KT P6SM FEW250
     FM190000 20010KT P6SM SCT250 WS020/22040KT
     FM190600 23007KT P6SM FEW250
     FM191300 29005KT P6SM FEW250=

USA.gov is the U.S. government's official web portal to all federal, state and local government web resources and services.